Flight Track Log - Related Links

Times and Time Zones

All times are in EDT time to prevent confusion due to time zone crossing. See the AMF1324 flight status page for this flight to view local times or setup timezone preferences in your user account.

Time Position Orientation Groundspeed Altitude Reporting Facility
EDT Latitude Longitude Course Direction KTS MPH feet Rate Location/Type
Fri 06:35:14 AM 42.9333 -78.7333 180° South 117 135 1,300  Level Buffalo TRACON
Fri 06:35:44 AM 42.9167 -78.7333 185° South 158 182 2,600 2,192 Climbing Buffalo TRACON
Fri 06:38:01 AM 42.8942 -78.5800 101° East 205 236 7,400 2,061 Climbing Cleveland Center
Fri 06:39:02 AM 42.8811 -78.4944 102° East 220 253 9,400 1,820 Climbing Cleveland Center
Fri 06:40:03 AM 42.8678 -78.4106 102° East 222 255 11,100 1,426 Climbing Cleveland Center
Fri 06:41:04 AM 42.8567 -78.3239 100° East 232 267 12,300 976 Climbing Cleveland Center
Fri 06:42:06 AM 42.8447 -78.2289 100° East 248 285 13,100 390 Climbing Cleveland Center
Fri 06:43:07 AM 42.8358 -78.1231 96° East 279 321 13,100  Level Cleveland Center
Fri 06:44:08 AM 42.8278 -78.0128 96° East 289 333 13,100  Level Cleveland Center
Fri 06:45:09 AM 42.8222 -77.9014 94° East 292 336 13,100 -49 Level Cleveland Center
Fri 06:46:11 AM 42.8217 -77.7892 90° East 295 339 13,000 -49 Descending Cleveland Center
Fri 06:47:12 AM 42.8156 -77.6800 94° East 302 348 13,000  Level Cleveland Center
Fri 06:48:13 AM 42.7733 -77.5806 120° Southeast 302 348 13,000  Level Cleveland Center
Fri 06:49:15 AM 42.7311 -77.4806 120° Southeast 302 348 13,000  Level Cleveland Center
Fri 06:50:16 AM 42.6892 -77.3800 120° Southeast 302 348 13,000 -49 Level Cleveland Center
Fri 06:51:18 AM 42.6472 -77.2814 120° Southeast 302 348 12,900 -98 Descending Cleveland Center
Fri 06:52:19 AM 42.5989 -77.1619 119° Southeast 301 346 12,800 -393 Descending Cleveland Center
Fri 06:53:20 AM 42.5544 -77.0581 120° Southeast 308 354 12,100 -829 Descending Cleveland Center
Fri 06:54:22 AM 42.5100 -76.9525 120° Southeast 317 365 11,100 -927 Descending Cleveland Center
Fri 06:55:23 AM 42.4650 -76.8447 119° Southeast 325 374 10,200 -683 Descending Cleveland Center
Fri 06:56:25 AM 42.4211 -76.7392 119° Southeast 325 374 9,700 -488 Descending Cleveland Center
Fri 06:57:26 AM 42.3842 -76.6369 116° Southeast 311 358 9,200 -732 Descending Cleveland Center
Fri 06:58:28 AM 42.3603 -76.5261 106° East 310 357 8,200 -976 Descending Cleveland Center
Fri 06:59:29 AM 42.3339 -76.4200 109° East 304 350 7,200 -1,073 Descending Cleveland Center
Fri 07:00:31 AM 42.3053 -76.2981 108° East 293 337 6,000 -1,333 Descending Cleveland Center
Fri 07:01:26 AM 42.2853 -76.2225 110° East 287 330 4,600 -1,200 Descending New York Center
Fri 07:02:26 AM 42.2625 -76.1336 109° East 269 310 3,700 -550 Descending New York Center
Fri 07:03:26 AM 42.2308 -76.0442 116° Southeast 240 276 3,500 -450 Descending New York Center
Fri 07:04:26 AM 42.1989 -76.0192 150° Southeast 210 242 2,800 -400 Descending New York Center
Fri 07:05:26 AM 42.1625 -75.9942 153° Southeast 169 194 2,700 -200 Descending New York Center
Fri 07:06:26 AM 42.1647 -75.9439 87° East 151 174 2,400 -300 Descending New York Center

Login

Don't have an account? Register now (free) for customized features, flight alerts, and more!